Hauptseite
METAR-TAF:

METAR-TAF

Flughäfen :

Flughafen Tumbes

Tumbes, Peru

Breite: 03-33S, Länge: 080-24W, Höhe: 25 m

Beobachtung

Neuester Wetterbericht von vor 1 Stunde und 11 Minuten, um 21:00 UTC
Wind 8 kt aus Nord
Temperatur 26°C
Luftfeuchtigkeit 74%
Luftdruck 1010 hPa
Sichtweite 10 km oder mehr
Aufgelockert bewölkt in der Höhe von 2000 ft

METAR: SPME 122100Z 35008KT 9999 SCT020 26/21 Q1010 RMK BIRD HAZARD RWY 32/14 PP000

Zeit: 17:11 (22:11 UTC)

Prognose

Neuester Wetterbericht von vor 5 Stunden und 11 Minuten, um 17:00 UTC
Gültige Prognose vom 12 um 18 UTC bis 13 um 18 UTC
Wind 9 kt aus Nordwest
Sichtweite 10 km oder mehr
keine Wolken unter 1500 m und keine Kumulonimbus oder Gewitterwolken
Übergehend zu
vom 12 um 23 UTC bis 13 um 01 UTC
Geschlossene Wolkendecke in der Höhe von 1400 ft

TAF: SPME 121700Z 1218/1318 32009KT CAVOK TX30/1219Z TN20/1311Z BECMG 1223/1301 OVC014

Wetterbeobachtungen und Prognosen von mehr als 4000 Flughäfen (METAR und TAF Bericht).

Die verfügbaren Stationen werden durch gelbe und rote Markierungen auf der Karte dargestellt.

Führen Sie die Maus auf sie, um den Namen der Station zu sehen.

Darauf klicken, um die Beobachtung von Wetterbeobachtungen und Prognosen zu sehen.

Um die Karte zu ändern : klicken Sie auf den grünen Tasten mit einem schwarzen Kreuz Zum Vergrößern, auf den grünen Button mit einem Gedankenstrich zu verkleinern, oder auf die grünen Pfeile für benachbarte Karten.


METAR-TAF: